Aviation Digital Data Service (ADDS)

Output produced by METARs form (1634 UTC 16 June 2019)
found at http://www.aviationweather.gov/metar/data/
 
METAR text: MMCU 161541Z 00000KT 10SM SKC 29/04 A3009
Conditions at: MMCU (CHIHUAHUA INTL A, MX) observed 1541 UTC 16 June 2019
Temperature: 29.0°C (84°F)
Dewpoint: 4.0°C (39°F) [RH = 20%]
Pressure (altimeter): 30.09 inches Hg (1019.0 mb)
Winds: calm
Visibility: 10 or more miles (16+ km)
Ceiling: at least 12,000 feet AGL
Clouds: clear skies
Weather: no significant weather observed at this time

METAR text: MMCU 161440Z 23005KT 10SM SKC 26/05 A3009 RMK SLP063 52016 959
Conditions at: MMCU (CHIHUAHUA INTL A, MX) observed 1440 UTC 16 June 2019
Temperature: 26.0°C (79°F)
Dewpoint: 5.0°C (41°F) [RH = 26%]
Pressure (altimeter): 30.09 inches Hg (1019.0 mb)
[Sea-level pressure: 1006.3 mb]
Winds: from the SW (230 degrees) at 6 MPH (5 knots; 2.6 m/s)
Visibility: 10 or more miles (16+ km)
Ceiling: at least 12,000 feet AGL
Clouds: clear skies
Weather: no significant weather observed at this time

METAR text: MMCU 161344Z 22005KT 10SM SKC 23/06 A3009
Conditions at: MMCU (CHIHUAHUA INTL A, MX) observed 1344 UTC 16 June 2019
Temperature: 23.0°C (73°F)
Dewpoint: 6.0°C (43°F) [RH = 33%]
Pressure (altimeter): 30.09 inches Hg (1019.0 mb)
Winds: from the SW (220 degrees) at 6 MPH (5 knots; 2.6 m/s)
Visibility: 10 or more miles (16+ km)
Ceiling: at least 12,000 feet AGL
Clouds: clear skies
Weather: no significant weather observed at this time

METAR text: MMCU 161040Z 00000KT 10SM SCT030 18/04 A3004 RMK 8/500 RTS
Conditions at: MMCU (CHIHUAHUA INTL A, MX) observed 1040 UTC 16 June 2019
Temperature: 18.0°C (64°F)
Dewpoint: 4.0°C (39°F) [RH = 39%]
Pressure (altimeter): 30.04 inches Hg (1017.4 mb)
Winds: calm
Visibility: 10 or more miles (16+ km)
Ceiling: at least 12,000 feet AGL
Clouds: scattered clouds at 3000 feet AGL
Weather: no significant weather observed at this time

METAR text: MMCU 160245Z 33008KT 10SM SCT030 31/01 A2997 RMK SLP023 52013 955 8/500
Conditions at: MMCU (CHIHUAHUA INTL A, MX) observed 0245 UTC 16 June 2019
Temperature: 31.0°C (88°F)
Dewpoint: 1.0°C (34°F) [RH = 15%]
Pressure (altimeter): 29.97 inches Hg (1015.0 mb)
[Sea-level pressure: 1002.3 mb]
Winds: from the NNW (330 degrees) at 9 MPH (8 knots; 4.1 m/s)
Visibility: 10 or more miles (16+ km)
Ceiling: at least 12,000 feet AGL
Clouds: scattered clouds at 3000 feet AGL
Weather: no significant weather observed at this time

METAR text: MMCU 160148Z 30018KT 10SM BKN030 32/01 A2995 RMK 8/500
Conditions at: MMCU (CHIHUAHUA INTL A, MX) observed 0148 UTC 16 June 2019
Temperature: 32.0°C (90°F)
Dewpoint: 1.0°C (34°F) [RH = 14%]
Pressure (altimeter): 29.95 inches Hg (1014.3 mb)
Winds: from the WNW (300 degrees) at 21 MPH (18 knots; 9.3 m/s)
Visibility: 10 or more miles (16+ km)
Ceiling: 3000 feet AGL
Clouds: broken clouds at 3000 feet AGL
Weather: no significant weather observed at this time

METAR text: MMCU 160048Z 24010KT 10SM SCT030 34/M01 A2992 RMK 8/100
Conditions at: MMCU (CHIHUAHUA INTL A, MX) observed 0048 UTC 16 June 2019
Temperature: 34.0°C (93°F)
Dewpoint: -1.0°C (30°F) [RH = 11%]
Pressure (altimeter): 29.92 inches Hg (1013.3 mb)
Winds: from the WSW (240 degrees) at 12 MPH (10 knots; 5.1 m/s)
Visibility: 10 or more miles (16+ km)
Ceiling: at least 12,000 feet AGL
Clouds: scattered clouds at 3000 feet AGL
Weather: no significant weather observed at this time

METAR text: MMCU 152347Z 00000KT 10SM SCT030 36/M01 A2993 RMK SLP014 57022 967 8/100
Conditions at: MMCU (CHIHUAHUA INTL A, MX) observed 2347 UTC 15 June 2019
Temperature: 36.0°C (97°F)
Dewpoint: -1.0°C (30°F) [RH = 10%]
Pressure (altimeter): 29.93 inches Hg (1013.6 mb)
[Sea-level pressure: 1001.4 mb]
Winds: calm
Visibility: 10 or more miles (16+ km)
Ceiling: at least 12,000 feet AGL
Clouds: scattered clouds at 3000 feet AGL
Weather: no significant weather observed at this time

METAR text: MMCU 152242Z 14004KT 10SM BKN030 34/M01 A2995 RMK 8/100
Conditions at: MMCU (CHIHUAHUA INTL A, MX) observed 2242 UTC 15 June 2019
Temperature: 34.0°C (93°F)
Dewpoint: -1.0°C (30°F) [RH = 11%]
Pressure (altimeter): 29.95 inches Hg (1014.3 mb)
Winds: from the SE (140 degrees) at 5 MPH (4 knots; 2.1 m/s)
Visibility: 10 or more miles (16+ km)
Ceiling: 3000 feet AGL
Clouds: broken clouds at 3000 feet AGL
Weather: no significant weather observed at this time

METAR text: MMCU 152147Z 28007KT 10SM SCT030 34/M01 A2998 RMK 8/100
Conditions at: MMCU (CHIHUAHUA INTL A, MX) observed 2147 UTC 15 June 2019
Temperature: 34.0°C (93°F)
Dewpoint: -1.0°C (30°F) [RH = 11%]
Pressure (altimeter): 29.98 inches Hg (1015.3 mb)
Winds: from the W (280 degrees) at 8 MPH (7 knots; 3.6 m/s)
Visibility: 10 or more miles (16+ km)
Ceiling: at least 12,000 feet AGL
Clouds: scattered clouds at 3000 feet AGL
Weather: no significant weather observed at this time

METAR text: MMCU 152044Z 33004KT 10SM FEW030 34/M01 A3000 RMK SLP037 57025 966 8/100
Conditions at: MMCU (CHIHUAHUA INTL A, MX) observed 2044 UTC 15 June 2019
Temperature: 34.0°C (93°F)
Dewpoint: -1.0°C (30°F) [RH = 11%]
Pressure (altimeter): 30.00 inches Hg (1016.0 mb)
[Sea-level pressure: 1003.7 mb]
Winds: from the NNW (330 degrees) at 5 MPH (4 knots; 2.1 m/s)
Visibility: 10 or more miles (16+ km)
Ceiling: at least 12,000 feet AGL
Clouds: few clouds at 3000 feet AGL
Weather: no significant weather observed at this time

METAR text: MMCU 151941Z 25006KT 10SM FEW030 33/M02 A3003 RMK 8/100
Conditions at: MMCU (CHIHUAHUA INTL A, MX) observed 1941 UTC 15 June 2019
Temperature: 33.0°C (91°F)
Dewpoint: -2.0°C (28°F) [RH = 10%]
Pressure (altimeter): 30.03 inches Hg (1017.0 mb)
Winds: from the WSW (250 degrees) at 7 MPH (6 knots; 3.1 m/s)
Visibility: 10 or more miles (16+ km)
Ceiling: at least 12,000 feet AGL
Clouds: few clouds at 3000 feet AGL
Weather: no significant weather observed at this time

METAR text: MMCU 151840Z 28009KT 10SM SKC 33/M03 A3006 RMK CU W
Conditions at: MMCU (CHIHUAHUA INTL A, MX) observed 1840 UTC 15 June 2019
Temperature: 33.0°C (91°F)
Dewpoint: -3.0°C (27°F) [RH = 10%]
Pressure (altimeter): 30.06 inches Hg (1018.0 mb)
Winds: from the W (280 degrees) at 10 MPH (9 knots; 4.6 m/s)
Visibility: 10 or more miles (16+ km)
Ceiling: at least 12,000 feet AGL
Clouds: clear skies
Weather: no significant weather observed at this time

METAR text: MMCU 151745Z 22007KT 10SM SKC 32/M01 A3008 RMK SLP061 57011 961 CU NW
Conditions at: MMCU (CHIHUAHUA INTL A, MX) observed 1745 UTC 15 June 2019
Temperature: 32.0°C (90°F)
Dewpoint: -1.0°C (30°F) [RH = 12%]
Pressure (altimeter): 30.08 inches Hg (1018.7 mb)
[Sea-level pressure: 1006.1 mb]
Winds: from the SW (220 degrees) at 8 MPH (7 knots; 3.6 m/s)
Visibility: 10 or more miles (16+ km)
Ceiling: at least 12,000 feet AGL
Clouds: clear skies
Weather: no significant weather observed at this time

METAR text: MMCU 151643Z 00000KT 10SM SKC 31/02 A3010
Conditions at: MMCU (CHIHUAHUA INTL A, MX) observed 1643 UTC 15 June 2019
Temperature: 31.0°C (88°F)
Dewpoint: 2.0°C (36°F) [RH = 16%]
Pressure (altimeter): 30.10 inches Hg (1019.4 mb)
Winds: calm
Visibility: 10 or more miles (16+ km)
Ceiling: at least 12,000 feet AGL
Clouds: clear skies
Weather: no significant weather observed at this time

METAR text: MMCU 151542Z 35005KT 10SM SKC 29/03 A3012 RMK CU E
Conditions at: MMCU (CHIHUAHUA INTL A, MX) observed 1542 UTC 15 June 2019
Temperature: 29.0°C (84°F)
Dewpoint: 3.0°C (37°F) [RH = 19%]
Pressure (altimeter): 30.12 inches Hg (1020.1 mb)
Winds: from the N (350 degrees) at 6 MPH (5 knots; 2.6 m/s)
Visibility: 10 or more miles (16+ km)
Ceiling: at least 12,000 feet AGL
Clouds: clear skies
Weather: no significant weather observed at this time

METAR text: MMCU 151441Z 21007KT 10SM FEW030 26/08 A3012 RMK SLP079 52018 906 8/100
Conditions at: MMCU (CHIHUAHUA INTL A, MX) observed 1441 UTC 15 June 2019
Temperature: 26.0°C (79°F)
Dewpoint: 8.0°C (46°F) [RH = 32%]
Pressure (altimeter): 30.12 inches Hg (1020.1 mb)
[Sea-level pressure: 1007.9 mb]
Winds: from the SSW (210 degrees) at 8 MPH (7 knots; 3.6 m/s)
Visibility: 10 or more miles (16+ km)
Ceiling: at least 12,000 feet AGL
Clouds: few clouds at 3000 feet AGL
Weather: no significant weather observed at this time

METAR text: MMCU 151343Z 21007KT 10SM SCT030 23/09 A3012 RMK 8/100
Conditions at: MMCU (CHIHUAHUA INTL A, MX) observed 1343 UTC 15 June 2019
Temperature: 23.0°C (73°F)
Dewpoint: 9.0°C (48°F) [RH = 41%]
Pressure (altimeter): 30.12 inches Hg (1020.1 mb)
Winds: from the SSW (210 degrees) at 8 MPH (7 knots; 3.6 m/s)
Visibility: 10 or more miles (16+ km)
Ceiling: at least 12,000 feet AGL
Clouds: scattered clouds at 3000 feet AGL
Weather: no significant weather observed at this time

METAR text: MMCU 150942Z 00000KT 10SM BKN080 20/09 A3006 RMK 8/070 RTS
Conditions at: MMCU (CHIHUAHUA INTL A, MX) observed 0942 UTC 15 June 2019
Temperature: 20.0°C (68°F)
Dewpoint: 9.0°C (48°F) [RH = 49%]
Pressure (altimeter): 30.06 inches Hg (1018.0 mb)
Winds: calm
Visibility: 10 or more miles (16+ km)
Ceiling: 8000 feet AGL
Clouds: broken clouds at 8000 feet AGL
Weather: no significant weather observed at this time

Forecast for: MMCU (CHIHUAHUA INTL A, MX)
Text: TAF MMCU 160455Z 1606/1706 30005KT P6SM SKC
Forecast period: 0600 to 1800 UTC 16 June 2019
Forecast type: FROM: standard forecast or significant change
Winds: from the WNW (300 degrees) at 6 MPH (5 knots; 2.6 m/s)
Visibility: 6 or more miles 10+ km)
Clouds: clear skies
Weather: no significant weather forecast for this period
Text: FM161800 25010KT P6SM SCT030
Forecast period: 1800 UTC 16 June 2019 to 0300 UTC 17 June 2019
Forecast type: FROM: standard forecast or significant change
Winds: from the WSW (250 degrees) at 12 MPH (10 knots; 5.1 m/s)
Visibility: 6 or more miles 10+ km)
Ceiling: at least 12,000 feet AGL
Clouds: scattered clouds at 3000 feet AGL
Weather: no significant weather forecast for this period
Text: FM170300 24005KT P6SM SKC
Forecast period: 0300 to 0600 UTC 17 June 2019
Forecast type: FROM: standard forecast or significant change
Winds: from the WSW (240 degrees) at 6 MPH (5 knots; 2.6 m/s)
Visibility: 6 or more miles 10+ km)
Clouds: clear skies
Weather: no significant weather forecast for this period